createdAt,value
2023-05-04T00:00:50.074Z,98.72
2023-05-04T00:03:17.610Z,98.52
2023-05-04T00:05:45.133Z,99.66
2023-05-04T00:08:13.916Z,98.91
2023-05-04T00:10:41.512Z,97.64
2023-05-04T00:13:09.091Z,97.68
2023-05-04T00:15:37.279Z,97.56
2023-05-04T00:18:04.941Z,97.40
2023-05-04T00:20:32.475Z,98.36
2023-05-04T00:22:59.930Z,99.57
2023-05-04T00:25:28.725Z,100.00
2023-05-04T00:27:56.182Z,99.05
2023-05-04T00:30:23.939Z,98.14
2023-05-04T00:32:51.450Z,96.20
2023-05-04T00:35:19.057Z,95.59
2023-05-04T00:37:46.560Z,95.35
2023-05-04T00:40:14.225Z,96.30
2023-05-04T00:42:43.019Z,96.52
2023-05-04T00:45:11.502Z,96.65
2023-05-04T00:47:39.049Z,97.43
2023-05-04T00:50:07.871Z,98.37
2023-05-04T00:52:36.202Z,98.77
2023-05-04T00:55:05.271Z,97.60
2023-05-04T00:57:32.793Z,98.82
2023-05-04T01:00:01.692Z,98.92
2023-05-04T01:02:29.311Z,99.79
2023-05-04T01:04:56.863Z,100.00
2023-05-04T01:07:32.575Z,100.00
2023-05-04T01:10:05.663Z,100.00
2023-05-04T01:12:38.844Z,100.00
2023-05-04T01:15:10.381Z,100.00
2023-05-04T01:17:38.280Z,100.00
2023-05-04T01:20:07.316Z,100.00
2023-05-04T01:22:36.653Z,100.00
2023-05-04T01:25:04.605Z,100.00
2023-05-04T01:27:38.569Z,100.00
2023-05-04T01:30:09.993Z,100.00
2023-05-04T01:32:38.463Z,100.00
2023-05-04T01:35:07.275Z,100.00
2023-05-04T01:37:36.159Z,100.00
2023-05-04T01:40:04.467Z,100.00
2023-05-04T01:42:32.165Z,100.00
2023-05-04T01:44:59.639Z,100.00
2023-05-04T01:47:27.210Z,100.00
2023-05-04T01:49:54.690Z,100.00
2023-05-04T01:52:22.142Z,100.00
2023-05-04T01:54:50.957Z,100.00
2023-05-04T01:57:18.604Z,100.00
2023-05-04T01:59:46.123Z,100.00
2023-05-04T02:02:13.579Z,100.00
2023-05-04T02:04:41.328Z,100.00
2023-05-04T02:07:08.865Z,100.00
2023-05-04T02:09:36.754Z,100.00
2023-05-04T02:12:06.105Z,100.00
2023-05-04T02:14:33.588Z,100.00
2023-05-04T02:17:01.097Z,100.00
2023-05-04T02:19:28.632Z,100.00
2023-05-04T02:21:56.240Z,100.00
2023-05-04T02:24:23.717Z,100.00
2023-05-04T02:26:51.199Z,100.00
2023-05-04T02:29:20.018Z,100.00
2023-05-04T02:31:47.524Z,100.00
2023-05-04T02:34:15.034Z,100.00
2023-05-04T02:36:42.680Z,100.00
2023-05-04T02:39:10.204Z,100.00
2023-05-04T02:41:37.685Z,100.00
2023-05-04T02:44:05.551Z,100.00
2023-05-04T02:46:34.364Z,100.00
2023-05-04T02:49:01.854Z,100.00
2023-05-04T02:51:29.313Z,100.00
2023-05-04T02:53:56.808Z,100.00
2023-05-04T02:56:24.446Z,100.00
2023-05-04T02:58:51.992Z,100.00
2023-05-04T03:01:19.531Z,100.00
2023-05-04T03:03:48.387Z,100.00
2023-05-04T03:06:15.901Z,100.00
2023-05-04T03:08:43.363Z,100.00
2023-05-04T03:11:10.855Z,100.00
2023-05-04T03:13:38.318Z,100.00
2023-05-04T03:16:06.681Z,100.00
2023-05-04T03:18:34.494Z,100.00
2023-05-04T03:21:03.488Z,100.00
2023-05-04T03:23:30.930Z,100.00
2023-05-04T03:25:58.378Z,100.00
2023-05-04T03:28:25.853Z,100.00
2023-05-04T03:30:53.345Z,100.00
2023-05-04T03:33:20.805Z,100.00
2023-05-04T03:35:48.317Z,100.00
2023-05-04T03:38:17.097Z,100.00
2023-05-04T03:40:44.572Z,100.00
2023-05-04T03:43:12.054Z,100.00
2023-05-04T03:45:39.515Z,100.00
2023-05-04T03:48:07.151Z,100.00
2023-05-04T03:50:34.606Z,100.00
2023-05-04T03:53:02.137Z,100.00
2023-05-04T03:55:30.936Z,100.00
2023-05-04T03:57:58.743Z,100.00
2023-05-04T04:00:26.221Z,100.00
2023-05-04T04:02:53.844Z,100.00
2023-05-04T04:05:21.762Z,100.00
2023-05-04T04:07:49.239Z,100.00
2023-05-04T04:10:16.872Z,100.00
2023-05-04T04:12:45.735Z,100.00
2023-05-04T04:15:13.264Z,100.00
2023-05-04T04:17:41.156Z,100.00
2023-05-04T04:20:09.909Z,100.00
2023-05-04T04:22:37.516Z,96.90
2023-05-04T04:25:05.590Z,90.58
2023-05-04T04:27:33.042Z,85.65
2023-05-04T04:30:02.016Z,81.34
2023-05-04T04:32:29.610Z,79.05
2023-05-04T04:34:57.120Z,76.78
2023-05-04T04:37:24.598Z,72.56
2023-05-04T04:39:52.092Z,66.90
2023-05-04T04:42:19.552Z,63.32
2023-05-04T04:44:47.208Z,59.89
2023-05-04T04:47:16.608Z,60.64
2023-05-04T04:49:44.403Z,61.68
2023-05-04T04:52:12.342Z,61.82
2023-05-04T04:54:39.979Z,63.10
2023-05-04T04:57:07.588Z,63.69
2023-05-04T04:59:35.058Z,67.77
2023-05-04T05:02:02.915Z,68.60
2023-05-04T05:04:31.777Z,66.90
2023-05-04T05:06:59.629Z,65.02
2023-05-04T05:09:27.097Z,65.08
2023-05-04T05:11:54.588Z,64.53
2023-05-04T05:14:22.055Z,64.72
2023-05-04T05:16:50.171Z,64.05
2023-05-04T05:19:17.680Z,61.82
2023-05-04T05:21:47.458Z,57.59
2023-05-04T05:24:14.897Z,55.49
2023-05-04T05:26:42.489Z,52.68
2023-05-04T05:29:10.051Z,51.37
2023-05-04T05:31:37.477Z,49.99
2023-05-04T05:34:04.949Z,49.23
2023-05-04T05:36:32.624Z,50.77
2023-05-04T05:39:01.418Z,50.54
2023-05-04T05:41:28.889Z,49.62
2023-05-04T05:43:56.336Z,49.04
2023-05-04T05:46:24.996Z,49.25
2023-05-04T05:48:52.532Z,50.33
2023-05-04T05:51:20.017Z,51.26
2023-05-04T05:53:47.500Z,50.94
2023-05-04T05:56:16.322Z,50.65
2023-05-04T05:58:43.782Z,50.62
2023-05-04T06:01:11.267Z,50.69
2023-05-04T06:03:38.937Z,49.27
2023-05-04T06:06:06.680Z,50.09
2023-05-04T06:08:34.160Z,50.61
2023-05-04T06:11:01.612Z,50.43
2023-05-04T06:13:30.516Z,50.73
2023-05-04T06:15:58.073Z,50.44
2023-05-04T06:18:25.564Z,49.54
2023-05-04T06:20:58.906Z,48.05
2023-05-04T06:23:27.056Z,47.08
2023-05-04T06:25:54.525Z,46.93
2023-05-04T06:28:21.971Z,47.51
2023-05-04T06:30:50.844Z,47.07
2023-05-04T06:33:18.619Z,46.38
2023-05-04T06:35:46.147Z,45.64
2023-05-04T06:38:13.617Z,44.61
2023-05-04T06:40:41.173Z,43.63
2023-05-04T06:43:08.648Z,45.48
2023-05-04T06:45:36.208Z,42.34
2023-05-04T06:48:05.476Z,41.11
2023-05-04T06:50:33.527Z,40.00
2023-05-04T06:53:04.902Z,39.29
2023-05-04T06:55:32.726Z,36.53
2023-05-04T06:58:00.195Z,35.89
2023-05-04T07:00:28.203Z,36.49
2023-05-04T07:02:55.863Z,35.63
2023-05-04T07:05:25.176Z,35.56
2023-05-04T07:07:52.761Z,34.20
2023-05-04T07:10:20.293Z,35.70
2023-05-04T07:12:47.868Z,36.37
2023-05-04T07:15:15.831Z,38.74
2023-05-04T07:17:43.371Z,38.72
2023-05-04T07:20:12.005Z,37.18
2023-05-04T07:22:40.801Z,37.70
2023-05-04T07:25:09.208Z,38.92
2023-05-04T07:27:36.768Z,39.69
2023-05-04T07:30:06.504Z,40.43
2023-05-04T07:32:34.222Z,40.92
2023-05-04T07:35:01.669Z,41.28
2023-05-04T07:37:29.169Z,39.72
2023-05-04T07:40:00.148Z,38.44
2023-05-04T07:42:28.603Z,37.89
2023-05-04T07:44:56.250Z,38.36
2023-05-04T07:47:24.716Z,39.21
2023-05-04T07:49:52.276Z,39.37
2023-05-04T07:52:19.764Z,39.40
2023-05-04T07:54:47.242Z,39.26
2023-05-04T07:57:16.194Z,38.82
2023-05-04T07:59:43.669Z,38.66
2023-05-04T08:02:11.624Z,38.05
2023-05-04T08:04:39.352Z,38.46
2023-05-04T08:07:06.814Z,39.38
2023-05-04T08:09:34.282Z,38.75
2023-05-04T08:12:02.559Z,40.41
2023-05-04T08:14:31.399Z,41.11
2023-05-04T08:16:58.881Z,39.37
2023-05-04T08:19:26.467Z,40.56
2023-05-04T08:21:54.211Z,39.56
2023-05-04T08:24:21.753Z,38.93
2023-05-04T08:26:59.482Z,39.34
2023-05-04T08:29:33.173Z,39.70
2023-05-04T08:32:00.806Z,41.48
2023-05-04T08:34:28.338Z,41.87
2023-05-04T08:36:55.837Z,39.37
2023-05-04T08:39:23.338Z,38.61
2023-05-04T08:41:50.930Z,38.40
2023-05-04T08:44:19.061Z,40.26
2023-05-04T08:46:52.318Z,38.56
2023-05-04T08:49:20.368Z,38.88
2023-05-04T08:51:49.364Z,38.76
2023-05-04T08:54:17.706Z,38.63
2023-05-04T08:56:46.317Z,38.55
2023-05-04T08:59:20.438Z,37.38
2023-05-04T09:01:54.196Z,38.41
2023-05-04T09:04:22.319Z,40.07
2023-05-04T09:06:50.358Z,38.17
2023-05-04T09:09:18.038Z,38.06
2023-05-04T09:11:45.675Z,38.57
2023-05-04T09:14:13.161Z,39.64
2023-05-04T09:16:40.861Z,38.31
2023-05-04T09:19:20.211Z,36.56
2023-05-04T09:21:49.246Z,36.51
2023-05-04T09:24:26.665Z,35.44
2023-05-04T09:26:54.200Z,35.83
2023-05-04T09:29:22.393Z,37.15
2023-05-04T09:31:51.222Z,39.42
2023-05-04T09:34:20.469Z,37.56
2023-05-04T09:36:59.209Z,37.38
2023-05-04T09:39:26.801Z,36.46
2023-05-04T09:41:54.320Z,36.40
2023-05-04T09:44:23.268Z,36.76
2023-05-04T09:46:55.608Z,37.90
2023-05-04T09:49:34.372Z,35.37
2023-05-04T09:52:03.228Z,32.38
2023-05-04T09:54:32.377Z,32.87
2023-05-04T09:57:06.450Z,35.21
2023-05-04T09:59:34.389Z,34.59
2023-05-04T10:02:07.652Z,34.29
2023-05-04T10:04:47.620Z,35.46
2023-05-04T10:07:15.248Z,36.43
2023-05-04T10:09:42.877Z,35.26
2023-05-04T10:12:10.322Z,35.11
2023-05-04T10:14:37.924Z,34.40
2023-05-04T10:17:15.353Z,35.37
2023-05-04T10:19:58.873Z,34.10
2023-05-04T10:22:40.783Z,33.64
2023-05-04T10:25:33.628Z,33.51
2023-05-04T10:28:07.614Z,34.25
2023-05-04T10:30:35.351Z,34.68
2023-05-04T10:33:03.109Z,34.33
2023-05-04T10:35:32.858Z,35.31
2023-05-04T10:38:00.740Z,35.22
2023-05-04T10:40:36.463Z,36.00
2023-05-04T10:43:04.429Z,33.34
2023-05-04T10:45:39.261Z,31.87
2023-05-04T10:48:07.745Z,34.98
2023-05-04T10:50:47.310Z,33.80
2023-05-04T10:53:15.956Z,34.61
2023-05-04T10:55:44.903Z,32.72
2023-05-04T10:58:16.506Z,32.69
2023-05-04T11:00:46.110Z,27.90
2023-05-04T11:03:14.294Z,25.61
2023-05-04T11:05:43.443Z,26.79
2023-05-04T11:08:19.851Z,29.10
2023-05-04T11:10:48.444Z,30.55
2023-05-04T11:13:16.767Z,27.87
2023-05-04T11:15:48.358Z,29.92
2023-05-04T11:18:17.937Z,29.58
2023-05-04T11:20:46.542Z,27.07
2023-05-04T11:23:17.039Z,29.82
2023-05-04T11:25:46.005Z,29.69
2023-05-04T11:28:14.207Z,30.67
2023-05-04T11:30:44.457Z,31.25
2023-05-04T11:33:13.838Z,29.02
2023-05-04T11:35:42.409Z,28.55
2023-05-04T11:38:10.257Z,28.59
2023-05-04T11:40:41.024Z,27.36
2023-05-04T11:43:12.615Z,29.72
2023-05-04T11:45:42.467Z,28.26
2023-05-04T11:48:10.617Z,28.98
2023-05-04T11:50:38.740Z,29.32
2023-05-04T11:53:08.879Z,28.72
2023-05-04T11:55:37.962Z,28.86
2023-05-04T11:58:06.931Z,29.94
2023-05-04T12:00:40.763Z,27.94
2023-05-04T12:03:09.829Z,27.14
2023-05-04T12:05:38.136Z,27.34
2023-05-04T12:08:07.296Z,28.54
2023-05-04T12:10:35.168Z,27.38
2023-05-04T12:13:02.938Z,29.38
2023-05-04T12:15:32.305Z,29.21
2023-05-04T12:18:03.016Z,29.31
2023-05-04T12:20:31.976Z,28.32
2023-05-04T12:23:06.330Z,29.63
2023-05-04T12:25:34.506Z,29.57
2023-05-04T12:28:04.673Z,31.66
2023-05-04T12:30:32.252Z,30.41
2023-05-04T12:33:01.280Z,30.09
2023-05-04T12:35:28.785Z,29.07
2023-05-04T12:37:56.614Z,29.15
2023-05-04T12:40:28.696Z,30.89
2023-05-04T12:42:56.680Z,28.51
2023-05-04T12:45:24.141Z,27.80
2023-05-04T12:47:51.622Z,27.05
2023-05-04T12:50:20.545Z,26.81
2023-05-04T12:52:48.083Z,26.04
2023-05-04T12:55:15.581Z,24.63
2023-05-04T12:57:44.836Z,25.69
2023-05-04T13:00:13.516Z,26.15
2023-05-04T13:02:41.148Z,25.61
2023-05-04T13:05:09.282Z,24.83
2023-05-04T13:07:38.068Z,24.69
2023-05-04T13:10:06.328Z,24.09
2023-05-04T13:12:33.940Z,23.21
2023-05-04T13:15:01.510Z,24.76
2023-05-04T13:17:30.596Z,23.76
2023-05-04T13:19:58.045Z,24.92
2023-05-04T13:22:25.720Z,24.13
2023-05-04T13:24:54.637Z,24.44
2023-05-04T13:27:22.389Z,25.03
2023-05-04T13:29:49.929Z,23.38
2023-05-04T13:32:17.460Z,21.58
2023-05-04T13:34:45.076Z,22.04
2023-05-04T13:37:18.159Z,23.72
2023-05-04T13:39:46.166Z,24.79
2023-05-04T13:42:15.096Z,22.90
2023-05-04T13:44:44.743Z,23.61
2023-05-04T13:47:13.166Z,22.14
2023-05-04T13:49:40.866Z,23.07
2023-05-04T13:52:08.409Z,24.00
2023-05-04T13:54:36.315Z,24.93
2023-05-04T13:57:04.435Z,23.27
2023-05-04T13:59:34.121Z,22.13
2023-05-04T14:02:01.741Z,23.24
2023-05-04T14:04:29.437Z,22.11
2023-05-04T14:06:57.613Z,21.68
2023-05-04T14:09:26.523Z,20.87
2023-05-04T14:11:54.483Z,20.61
2023-05-04T14:14:22.429Z,20.17
2023-05-04T14:16:51.277Z,21.07
2023-05-04T14:19:18.820Z,21.10
2023-05-04T14:21:46.717Z,20.59
2023-05-04T14:24:14.273Z,20.46
2023-05-04T14:26:41.759Z,20.69
2023-05-04T14:29:09.228Z,21.37
2023-05-04T14:31:36.693Z,21.56
2023-05-04T14:34:05.482Z,22.52
2023-05-04T14:36:32.943Z,21.67
2023-05-04T14:39:02.794Z,21.27
2023-05-04T14:41:33.598Z,22.11
2023-05-04T14:44:01.442Z,22.24
2023-05-04T14:46:30.949Z,23.41
2023-05-04T14:48:58.679Z,23.74
2023-05-04T14:51:27.935Z,24.51
2023-05-04T14:53:55.447Z,22.92
2023-05-04T14:56:23.192Z,24.51
2023-05-04T14:58:50.728Z,24.91
2023-05-04T15:01:18.208Z,24.64
2023-05-04T15:03:45.799Z,24.53
2023-05-04T15:06:13.699Z,24.16
2023-05-04T15:08:42.501Z,24.02
2023-05-04T15:11:09.957Z,23.81
2023-05-04T15:13:37.426Z,23.67
2023-05-04T15:16:05.440Z,23.59
2023-05-04T15:18:32.941Z,23.29
2023-05-04T15:21:00.378Z,24.04
2023-05-04T15:23:27.950Z,22.42
2023-05-04T15:25:56.827Z,21.80
2023-05-04T15:28:26.008Z,21.92
2023-05-04T15:30:53.472Z,23.89
2023-05-04T15:33:21.574Z,23.12
2023-05-04T15:35:49.037Z,22.59
2023-05-04T15:38:16.585Z,24.67
2023-05-04T15:40:44.041Z,25.21
2023-05-04T15:43:12.924Z,23.75
2023-05-04T15:45:40.535Z,24.55
2023-05-04T15:48:08.115Z,25.45
2023-05-04T15:50:35.624Z,26.14
2023-05-04T15:53:03.468Z,25.55
2023-05-04T15:55:31.055Z,25.41
2023-05-04T15:57:58.745Z,26.62
2023-05-04T16:00:28.113Z,27.88
2023-05-04T16:02:56.496Z,28.19
2023-05-04T16:05:24.874Z,29.12
2023-05-04T16:07:52.517Z,27.58
2023-05-04T16:10:20.825Z,28.50
2023-05-04T16:12:48.616Z,27.61
2023-05-04T16:15:16.318Z,28.78
2023-05-04T16:17:45.103Z,29.05
2023-05-04T16:20:12.841Z,28.86
2023-05-04T16:22:40.297Z,29.98
2023-05-04T16:25:10.323Z,29.37
2023-05-04T16:27:38.893Z,29.39
2023-05-04T16:30:07.784Z,29.53
2023-05-04T16:32:35.542Z,29.22
2023-05-04T16:35:04.781Z,30.08
2023-05-04T16:37:32.246Z,29.91
2023-05-04T16:39:59.704Z,30.99
2023-05-04T16:42:27.254Z,30.75
2023-05-04T16:44:54.717Z,30.03
2023-05-04T16:47:22.237Z,30.86
2023-05-04T16:49:49.712Z,31.71
2023-05-04T16:52:18.493Z,31.55
2023-05-04T16:54:45.934Z,31.97
2023-05-04T16:57:13.396Z,33.09
2023-05-04T16:59:40.859Z,34.00
2023-05-04T17:02:08.894Z,33.99
2023-05-04T17:04:36.474Z,33.68
2023-05-04T17:07:03.973Z,34.94
2023-05-04T17:09:32.755Z,34.13
2023-05-04T17:12:00.949Z,33.27
2023-05-04T17:14:28.442Z,34.53
2023-05-04T17:16:55.898Z,35.22
2023-05-04T17:19:23.348Z,33.97
2023-05-04T17:21:50.814Z,34.75
2023-05-04T17:24:18.713Z,34.54
2023-05-04T17:26:47.501Z,33.70
2023-05-04T17:29:15.001Z,34.73
2023-05-04T17:31:42.504Z,35.17
2023-05-04T17:34:09.979Z,34.99
2023-05-04T17:36:37.591Z,35.07
2023-05-04T17:39:05.117Z,35.16
2023-05-04T17:41:32.707Z,34.46
2023-05-04T17:44:01.608Z,34.72
2023-05-04T17:46:29.811Z,34.39
2023-05-04T17:48:57.449Z,35.40
2023-05-04T17:51:24.927Z,36.37
2023-05-04T17:53:52.382Z,36.60
2023-05-04T17:56:21.235Z,36.09
2023-05-04T17:58:48.739Z,36.03
2023-05-04T18:01:17.777Z,36.15
2023-05-04T18:03:45.337Z,36.67
2023-05-04T18:06:12.926Z,36.48
2023-05-04T18:08:40.446Z,36.58
2023-05-04T18:11:07.918Z,37.05
2023-05-04T18:13:35.444Z,37.37
2023-05-04T18:16:02.960Z,37.18
2023-05-04T18:18:31.838Z,37.28
2023-05-04T18:21:00.599Z,37.25
2023-05-04T18:23:29.062Z,37.42
2023-05-04T18:25:56.532Z,37.90
2023-05-04T18:28:24.003Z,39.90
2023-05-04T18:30:51.497Z,40.83
2023-05-04T18:33:18.943Z,43.98
2023-05-04T18:35:47.908Z,45.68
2023-05-04T18:38:16.203Z,46.11
2023-05-04T18:40:43.685Z,46.43
2023-05-04T18:43:11.245Z,46.59
2023-05-04T18:45:38.735Z,47.14
2023-05-04T18:48:06.616Z,47.68
2023-05-04T18:50:34.114Z,48.37
2023-05-04T18:53:05.219Z,48.63
2023-05-04T18:55:32.694Z,48.48
2023-05-04T18:58:00.988Z,48.78
2023-05-04T19:00:28.644Z,48.88
2023-05-04T19:02:58.080Z,49.36
2023-05-04T19:05:25.896Z,50.71
2023-05-04T19:07:53.394Z,52.05
2023-05-04T19:10:22.173Z,52.49
2023-05-04T19:12:51.730Z,53.17
2023-05-04T19:15:19.673Z,55.15
2023-05-04T19:17:47.168Z,57.36
2023-05-04T19:20:16.240Z,59.14
2023-05-04T19:22:44.690Z,59.75
2023-05-04T19:25:20.352Z,59.91
2023-05-04T19:27:56.076Z,60.93
2023-05-04T19:30:23.526Z,62.00
2023-05-04T19:32:51.217Z,63.34
2023-05-04T19:35:18.978Z,62.30
2023-05-04T19:37:47.233Z,64.21
2023-05-04T19:40:14.772Z,60.85
2023-05-04T19:42:45.994Z,60.64
2023-05-04T19:45:15.636Z,61.81
2023-05-04T19:47:43.192Z,62.26
2023-05-04T19:50:11.500Z,64.27
2023-05-04T19:52:39.238Z,66.45
2023-05-04T19:55:07.715Z,67.07
2023-05-04T19:57:35.547Z,67.26
2023-05-04T20:00:03.182Z,67.07
2023-05-04T20:02:32.391Z,67.21
2023-05-04T20:04:59.972Z,65.42
2023-05-04T20:07:27.611Z,62.93
2023-05-04T20:09:55.525Z,62.98
2023-05-04T20:12:23.035Z,62.94
2023-05-04T20:14:50.916Z,66.53
2023-05-04T20:17:18.405Z,67.25
2023-05-04T20:19:48.130Z,68.91
2023-05-04T20:22:15.773Z,70.43
2023-05-04T20:24:43.574Z,71.81
2023-05-04T20:27:11.059Z,74.61
2023-05-04T20:29:38.590Z,75.19
2023-05-04T20:32:07.260Z,73.78
2023-05-04T20:34:35.633Z,74.00
2023-05-04T20:37:04.448Z,75.65
2023-05-04T20:39:32.307Z,77.01
2023-05-04T20:42:00.280Z,73.73
2023-05-04T20:44:27.894Z,72.13
2023-05-04T20:46:55.373Z,71.69
2023-05-04T20:49:22.881Z,71.04
2023-05-04T20:51:50.370Z,70.98
2023-05-04T20:54:19.186Z,72.87
2023-05-04T20:56:46.678Z,74.19
2023-05-04T20:59:14.185Z,73.89
2023-05-04T21:01:41.695Z,74.98
2023-05-04T21:04:09.254Z,76.32
2023-05-04T21:06:36.738Z,77.22
2023-05-04T21:09:04.728Z,77.38
2023-05-04T21:11:33.731Z,78.11
2023-05-04T21:14:01.217Z,78.27
2023-05-04T21:16:28.683Z,78.34
2023-05-04T21:18:56.195Z,78.53
2023-05-04T21:21:23.648Z,78.99
2023-05-04T21:23:51.275Z,79.71
2023-05-04T21:26:18.710Z,79.24
2023-05-04T21:28:47.509Z,80.59
2023-05-04T21:31:15.105Z,81.03
2023-05-04T21:33:42.594Z,81.94
2023-05-04T21:36:14.057Z,83.16
2023-05-04T21:38:41.772Z,82.82
2023-05-04T21:41:13.697Z,83.93
2023-05-04T21:43:41.844Z,84.08
2023-05-04T21:46:11.940Z,85.45
2023-05-04T21:48:40.174Z,90.00
2023-05-04T21:51:07.910Z,90.36
2023-05-04T21:53:35.459Z,89.19
2023-05-04T21:56:07.465Z,85.27
2023-05-04T21:58:35.042Z,81.50
2023-05-04T22:01:03.382Z,80.89
2023-05-04T22:03:32.443Z,80.20
2023-05-04T22:06:00.248Z,80.38
2023-05-04T22:08:29.087Z,81.01
2023-05-04T22:10:58.461Z,81.67
2023-05-04T22:13:26.368Z,82.94
2023-05-04T22:15:54.564Z,84.00
2023-05-04T22:18:22.269Z,82.43
2023-05-04T22:20:51.108Z,80.27
2023-05-04T22:23:18.818Z,79.01
2023-05-04T22:25:46.278Z,81.50
2023-05-04T22:28:13.781Z,91.89
2023-05-04T22:30:41.381Z,99.36
2023-05-04T22:33:08.886Z,99.65
2023-05-04T22:35:36.349Z,91.71
2023-05-04T22:38:05.429Z,88.23
2023-05-04T22:40:33.174Z,86.69
2023-05-04T22:43:00.670Z,85.45
2023-05-04T22:45:31.935Z,86.21
2023-05-04T22:47:59.440Z,84.76
2023-05-04T22:50:28.088Z,85.86
2023-05-04T22:52:55.625Z,85.51
2023-05-04T22:55:24.700Z,85.90
2023-05-04T22:57:52.219Z,84.85
2023-05-04T23:00:20.786Z,84.51
2023-05-04T23:02:48.365Z,84.07
2023-05-04T23:05:16.045Z,84.52
2023-05-04T23:07:43.586Z,89.36
2023-05-04T23:10:11.430Z,94.27
2023-05-04T23:12:40.236Z,91.47
2023-05-04T23:15:09.151Z,87.68
2023-05-04T23:17:38.464Z,86.57
2023-05-04T23:20:07.904Z,86.27
2023-05-04T23:22:36.135Z,88.02
2023-05-04T23:25:04.230Z,87.21
2023-05-04T23:27:31.663Z,87.68
2023-05-04T23:30:00.433Z,87.68
2023-05-04T23:32:27.908Z,87.31
2023-05-04T23:34:55.429Z,87.62
2023-05-04T23:37:23.137Z,86.52
2023-05-04T23:39:50.624Z,84.86
2023-05-04T23:42:18.089Z,84.10
2023-05-04T23:44:45.613Z,84.97
2023-05-04T23:47:14.438Z,86.07
2023-05-04T23:49:41.917Z,87.54
2023-05-04T23:52:09.404Z,87.25
2023-05-04T23:54:36.852Z,86.69
2023-05-04T23:57:05.004Z,90.12
2023-05-04T23:59:32.711Z,92.99
